Time;durP1;ratioP1;P1;durP2;ratioP2;P2;SDS_P1;SDS_P2;PMS_P1;PMS_P2;Temp;Humidity;BMP_temperature;BMP_pressure;BME280_temperature;BME280_humidity;BME280_pressure;Samples;Min_cycle;Max_cycle;Signal;HPM_P1;HPM_P2
2021/12/14 00:00:45;;;;;;;;;33.00;30.25;;;;;;;;5019310;28;45720;-66
2021/12/14 00:03:12;;;;;;;;;40.00;32.25;;;;;;;;5021702;28;45398;-66
2021/12/14 00:05:38;;;;;;;;;32.50;28.00;;;;;;;;5023243;28;45387;-66
2021/12/14 00:08:05;;;;;;;;;47.75;34.25;;;;;;;;5022413;28;45333;-67
2021/12/14 00:13:08;;;;;;;;;28.25;25.00;;;;;;;;5021825;28;45166;-66
2021/12/14 00:15:33;;;;;;;;;27.25;25.25;;;;;;;;5001705;28;45293;-66
2021/12/14 00:18:02;;;;;;;;;35.25;28.00;;;;;;;;5018294;28;45467;-66
2021/12/14 00:20:39;;;;;;;;;31.75;23.25;;;;;;;;5021825;28;46329;-66
2021/12/14 00:25:39;;;;;;;;;32.67;26.33;;;;;;;;5021474;28;45513;-66
2021/12/14 00:28:07;;;;;;;;;29.67;23.67;;;;;;;;5021338;28;45707;-66
2021/12/14 00:30:33;;;;;;;;;29.67;26.33;;;;;;;;5021527;28;45392;-65
2021/12/14 00:32:59;;;;;;;;;30.33;27.33;;;;;;;;5019410;28;45477;-66
2021/12/14 00:35:24;;;;;;;;;24.33;20.67;;;;;;;;5020350;28;45385;-65
2021/12/14 00:37:51;;;;;;;;;27.67;20.67;;;;;;;;5019860;28;45621;-66
2021/12/14 00:40:24;;;;;;;;;27.67;20.33;;;;;;;;5020897;28;45528;-66
2021/12/14 00:42:50;;;;;;;;;30.00;21.33;;;;;;;;5008222;28;45363;-66
2021/12/14 00:45:16;;;;;;;;;28.33;23.67;;;;;;;;5011183;28;45384;-66
2021/12/14 00:47:41;;;;;;;;;31.00;25.67;;;;;;;;5021509;28;45655;-66
2021/12/14 00:50:08;;;;;;;;;25.67;23.00;;;;;;;;5021501;28;46790;-65
2021/12/14 00:52:34;;;;;;;;;26.33;21.00;;;;;;;;5022522;28;45308;-65
2021/12/14 00:54:59;;;;;;;;;24.67;19.33;;;;;;;;5001592;28;45403;-65
2021/12/14 00:57:24;;;;;;;;;24.00;21.33;;;;;;;;5022787;28;45372;-65
2021/12/14 00:59:50;;;;;;;;;22.67;20.00;;;;;;;;5001610;28;48200;-66
2021/12/14 01:02:20;;;;;;;;;23.00;19.33;;;;;;;;5022134;28;45303;-66
2021/12/14 01:04:53;;;;;;;;;22.67;17.67;;;;;;;;5020354;28;45717;-66
2021/12/14 01:07:20;;;;;;;;;20.33;17.67;;;;;;;;5022723;28;45243;-65
2021/12/14 01:09:48;;;;;;;;;24.00;19.00;;;;;;;;5019318;28;46269;-65
2021/12/14 01:12:20;;;;;;;;;18.00;17.00;;;;;;;;5022111;28;45374;-65
2021/12/14 01:15:10;;;;;;;;;18.00;13.67;;;;;;;;5023762;28;45309;-65
2021/12/14 01:17:53;;;;;;;;;15.67;15.67;;;;;;;;5024636;28;45415;-65
2021/12/14 01:20:19;;;;;;;;;18.00;17.33;;;;;;;;5024845;28;45667;-66
2021/12/14 01:22:47;;;;;;;;;24.33;18.00;;;;;;;;5023186;28;45340;-65
2021/12/14 01:25:13;;;;;;;;;17.00;17.00;;;;;;;;5025142;28;45258;-65
2021/12/14 01:27:43;;;;;;;;;21.33;15.00;;;;;;;;5025698;28;45517;-66
2021/12/14 01:30:26;;;;;;;;;19.00;17.00;;;;;;;;5024705;28;46290;-66
2021/12/14 01:32:52;;;;;;;;;22.00;18.00;;;;;;;;5024543;28;45390;-66
2021/12/14 01:35:22;;;;;;;;;27.33;17.33;;;;;;;;5020133;28;45375;-65
2021/12/14 01:37:59;;;;;;;;;23.67;19.67;;;;;;;;5024286;28;45240;-65
2021/12/14 01:43:09;;;;;;;;;18.33;14.00;;;;;;;;5024373;28;45293;-64
2021/12/14 01:45:34;;;;;;;;;22.33;15.67;;;;;;;;5024976;28;45362;-65
2021/12/14 01:48:00;;;;;;;;;21.33;19.00;;;;;;;;5024840;28;45317;-65
2021/12/14 01:50:30;;;;;;;;;22.33;16.00;;;;;;;;5024624;28;45338;-65
2021/12/14 01:52:56;;;;;;;;;18.33;16.33;;;;;;;;5006215;28;46095;-65
2021/12/14 01:55:24;;;;;;;;;19.33;17.00;;;;;;;;5013555;28;45381;-65
2021/12/14 01:57:49;;;;;;;;;22.00;17.00;;;;;;;;5024497;28;45642;-65
2021/12/14 02:00:18;;;;;;;;;21.33;13.33;;;;;;;;5024239;28;46772;-65
2021/12/14 02:02:45;;;;;;;;;15.00;12.00;;;;;;;;5006260;28;45378;-65
2021/12/14 02:05:23;;;;;;;;;26.33;20.00;;;;;;;;5023874;28;45319;-65
2021/12/14 02:07:49;;;;;;;;;16.67;14.33;;;;;;;;5023564;28;45276;-65
2021/12/14 02:10:18;;;;;;;;;17.00;16.00;;;;;;;;5023677;28;46147;-65
2021/12/14 02:12:44;;;;;;;;;19.33;16.67;;;;;;;;5024101;28;45366;-65
2021/12/14 02:15:12;;;;;;;;;21.00;16.33;;;;;;;;5024235;28;45327;-65
2021/12/14 02:17:38;;;;;;;;;16.00;16.00;;;;;;;;5025038;28;45529;-65
2021/12/14 02:20:04;;;;;;;;;21.00;16.33;;;;;;;;4999985;28;48312;-66
2021/12/14 02:22:30;;;;;;;;;21.33;16.00;;;;;;;;5024403;28;45283;-65
2021/12/14 02:24:55;;;;;;;;;19.00;14.00;;;;;;;;5022567;28;45333;-65
2021/12/14 02:27:20;;;;;;;;;26.33;16.33;;;;;;;;5025142;28;45248;-65
2021/12/14 02:29:47;;;;;;;;;26.67;18.33;;;;;;;;5023196;28;45653;-65
2021/12/14 02:32:14;;;;;;;;;20.33;14.00;;;;;;;;5024286;28;45400;-65
2021/12/14 02:34:41;;;;;;;;;20.33;13.00;;;;;;;;5023603;28;45489;-65
2021/12/14 02:37:07;;;;;;;;;21.00;16.67;;;;;;;;5024629;28;45391;-65
2021/12/14 02:39:48;;;;;;;;;19.33;18.00;;;;;;;;5000114;28;46383;-65
2021/12/14 02:42:23;;;;;;;;;21.33;19.00;;;;;;;;5005413;28;45412;-65
2021/12/14 02:44:50;;;;;;;;;22.33;18.00;;;;;;;;5001351;28;45321;-65
2021/12/14 02:47:16;;;;;;;;;18.67;15.33;;;;;;;;5021970;28;45305;-65
2021/12/14 02:49:43;;;;;;;;;13.67;12.00;;;;;;;;5022965;28;45365;-66
2021/12/14 02:52:13;;;;;;;;;22.33;18.33;;;;;;;;5022571;28;45683;-65
2021/12/14 02:54:50;;;;;;;;;25.33;19.33;;;;;;;;5015570;28;45427;-65
2021/12/14 02:57:18;;;;;;;;;25.00;21.33;;;;;;;;5021746;28;45515;-66
2021/12/14 02:59:46;;;;;;;;;23.00;17.33;;;;;;;;5022653;28;45434;-66
2021/12/14 03:02:21;;;;;;;;;15.33;12.33;;;;;;;;5023880;28;46146;-66
2021/12/14 03:04:49;;;;;;;;;18.67;17.00;;;;;;;;5023001;28;45465;-65
2021/12/14 03:07:16;;;;;;;;;26.00;21.67;;;;;;;;5024282;28;45491;-66
2021/12/14 03:09:56;;;;;;;;;15.67;13.00;;;;;;;;5022367;28;45391;-65
2021/12/14 03:12:30;;;;;;;;;21.00;15.67;;;;;;;;5023820;28;45535;-65
2021/12/14 03:14:59;;;;;;;;;20.00;16.00;;;;;;;;5022627;28;45431;-65
2021/12/14 03:17:24;;;;;;;;;24.33;21.67;;;;;;;;5024185;28;45324;-65
2021/12/14 03:19:55;;;;;;;;;27.00;19.67;;;;;;;;5000846;28;46211;-65
2021/12/14 03:22:33;;;;;;;;;17.00;13.00;;;;;;;;5023018;28;45416;-65
2021/12/14 03:24:59;;;;;;;;;18.33;16.33;;;;;;;;5021481;28;45304;-66
2021/12/14 03:27:25;;;;;;;;;16.00;11.67;;;;;;;;5023206;28;45273;-66
2021/12/14 03:29:51;;;;;;;;;15.33;15.33;;;;;;;;5004055;28;48076;-66
2021/12/14 03:32:16;;;;;;;;;21.33;18.33;;;;;;;;5021706;28;45397;-65
2021/12/14 03:34:42;;;;;;;;;22.33;19.00;;;;;;;;5021871;28;45402;-65
2021/12/14 03:37:19;;;;;;;;;29.00;20.00;;;;;;;;5022025;28;45308;-65
2021/12/14 03:39:47;;;;;;;;;25.33;21.33;;;;;;;;5021428;28;45588;-65
2021/12/14 03:42:24;;;;;;;;;20.33;18.33;;;;;;;;5004710;28;45343;-65
2021/12/14 03:44:54;;;;;;;;;25.33;19.33;;;;;;;;5021682;28;45979;-66
2021/12/14 03:47:24;;;;;;;;;23.33;18.67;;;;;;;;5002058;28;45370;-66
2021/12/14 03:49:54;;;;;;;;;24.67;21.00;;;;;;;;5021936;28;46216;-65
2021/12/14 03:52:23;;;;;;;;;23.00;20.00;;;;;;;;5003085;28;45284;-66
2021/12/14 03:54:49;;;;;;;;;21.67;18.00;;;;;;;;5013504;28;45324;-65
2021/12/14 03:57:14;;;;;;;;;20.00;16.33;;;;;;;;5023465;28;45718;-65
2021/12/14 03:59:40;;;;;;;;;24.33;18.67;;;;;;;;5022027;28;45501;-65
2021/12/14 04:02:07;;;;;;;;;24.00;14.33;;;;;;;;5006642;28;45452;-65
2021/12/14 04:04:36;;;;;;;;;18.33;17.00;;;;;;;;5007070;28;45391;-65
2021/12/14 04:07:02;;;;;;;;;25.67;20.00;;;;;;;;5022889;28;45559;-65
2021/12/14 04:09:29;;;;;;;;;22.67;17.33;;;;;;;;5009489;28;47401;-65
2021/12/14 04:11:55;;;;;;;;;20.00;17.33;;;;;;;;5007410;28;45755;-65
2021/12/14 04:14:20;;;;;;;;;26.50;23.75;;;;;;;;5006683;28;45732;-65
2021/12/14 04:16:47;;;;;;;;;21.00;17.00;;;;;;;;5022061;28;45316;-65
2021/12/14 04:19:14;;;;;;;;;19.33;18.33;;;;;;;;4998425;28;46703;-65
2021/12/14 04:21:41;;;;;;;;;27.00;22.33;;;;;;;;5021931;28;45272;-65
2021/12/14 04:24:08;;;;;;;;;26.67;21.67;;;;;;;;5012325;28;45534;-65
2021/12/14 04:26:33;;;;;;;;;25.00;20.67;;;;;;;;5022492;28;45449;-65
2021/12/14 04:28:59;;;;;;;;;11.67;11.33;;;;;;;;5013689;28;45395;-65
2021/12/14 04:31:25;;;;;;;;;36.25;29.50;;;;;;;;5009095;28;45257;-65
2021/12/14 04:33:51;;;;;;;;;37.25;30.25;;;;;;;;5021530;28;45437;-65
2021/12/14 04:36:20;;;;;;;;;26.00;22.33;;;;;;;;5022743;28;45360;-68
2021/12/14 04:38:52;;;;;;;;;30.33;25.67;;;;;;;;5021454;28;46421;-66
2021/12/14 04:52:34;;;;;;;;;25.00;19.33;;;;;;;;5025852;28;45373;-65
2021/12/14 04:55:02;;;;;;;;;29.33;23.33;;;;;;;;5015606;28;45311;-65
2021/12/14 04:57:30;;;;;;;;;29.33;22.33;;;;;;;;5011738;28;45878;-65
2021/12/14 04:59:57;;;;;;;;;23.67;20.33;;;;;;;;5015242;28;45473;-65
2021/12/14 05:02:27;;;;;;;;;25.33;22.67;;;;;;;;5013084;28;45428;-65
2021/12/14 05:04:55;;;;;;;;;29.67;28.33;;;;;;;;5024537;28;45602;-66
2021/12/14 05:09:52;;;;;;;;;38.00;28.25;;;;;;;;5023935;28;45324;-65
2021/12/14 05:12:19;;;;;;;;;32.00;28.75;;;;;;;;5025823;28;45194;-66
2021/12/14 05:14:45;;;;;;;;;22.00;15.67;;;;;;;;5024820;28;45420;-66
2021/12/14 05:17:13;;;;;;;;;21.67;21.67;;;;;;;;5008106;28;45258;-66
2021/12/14 05:19:39;;;;;;;;;19.00;16.00;;;;;;;;5024360;28;46358;-66
2021/12/14 05:22:10;;;;;;;;;23.00;21.00;;;;;;;;5007515;28;45455;-66
2021/12/14 05:24:39;;;;;;;;;34.33;23.00;;;;;;;;5000635;28;45869;-66
2021/12/14 05:27:06;;;;;;;;;30.00;26.33;;;;;;;;5007784;28;45406;-66
2021/12/14 05:29:32;;;;;;;;;23.00;21.67;;;;;;;;5023988;28;46555;-66
2021/12/14 05:31:57;;;;;;;;;22.00;17.00;;;;;;;;5025011;28;45879;-66
2021/12/14 05:34:24;;;;;;;;;28.33;21.67;;;;;;;;5000814;28;45256;-65
2021/12/14 05:36:50;;;;;;;;;20.67;19.00;;;;;;;;5007844;28;45443;-66
2021/12/14 05:44:17;;;;;;;;;23.67;17.67;;;;;;;;5023243;28;45350;-66
2021/12/14 05:46:50;;;;;;;;;25.67;18.00;;;;;;;;5025535;28;45493;-66
2021/12/14 05:49:16;;;;;;;;;24.00;22.00;;;;;;;;5003072;28;47779;-66
2021/12/14 05:51:41;;;;;;;;;29.33;22.00;;;;;;;;5024499;28;45447;-66
2021/12/14 05:54:07;;;;;;;;;29.33;26.00;;;;;;;;5020933;28;45646;-66
2021/12/14 05:56:33;;;;;;;;;28.67;20.00;;;;;;;;5018602;28;45474;-66
2021/12/14 05:58:58;;;;;;;;;29.33;22.67;;;;;;;;5022608;28;45533;-66
2021/12/14 06:01:27;;;;;;;;;37.75;36.50;;;;;;;;5024415;28;45368;-66
2021/12/14 06:03:55;;;;;;;;;30.67;23.67;;;;;;;;5022249;28;45254;-66
2021/12/14 06:06:23;;;;;;;;;27.25;19.50;;;;;;;;5024526;28;45260;-66
2021/12/14 06:08:48;;;;;;;;;19.33;14.67;;;;;;;;5023078;28;46409;-66
2021/12/14 06:11:20;;;;;;;;;16.33;16.00;;;;;;;;5023648;28;45295;-66
2021/12/14 06:13:46;;;;;;;;;24.00;23.33;;;;;;;;5023321;28;45452;-66
2021/12/14 06:16:28;;;;;;;;;26.33;19.33;;;;;;;;5022718;28;45797;-65
2021/12/14 06:18:55;;;;;;;;;17.33;13.33;;;;;;;;5022964;28;45258;-65
2021/12/14 06:21:28;;;;;;;;;24.33;21.00;;;;;;;;5012242;28;45285;-66
2021/12/14 06:23:59;;;;;;;;;20.67;18.67;;;;;;;;5022358;28;45454;-66
2021/12/14 06:26:31;;;;;;;;;31.67;25.00;;;;;;;;5024380;28;45316;-66
2021/12/14 06:29:02;;;;;;;;;19.00;19.00;;;;;;;;5022835;28;45663;-66
2021/12/14 06:31:28;;;;;;;;;28.67;27.00;;;;;;;;5023391;28;45331;-65
2021/12/14 06:33:53;;;;;;;;;28.00;22.00;;;;;;;;4999516;28;45393;-66
2021/12/14 06:36:38;;;;;;;;;31.33;23.67;;;;;;;;5023853;28;45201;-66
2021/12/14 06:39:06;;;;;;;;;20.33;18.00;;;;;;;;4997780;28;48360;-66
2021/12/14 06:41:31;;;;;;;;;21.67;17.33;;;;;;;;5023178;28;45429;-66
2021/12/14 06:43:57;;;;;;;;;26.67;21.33;;;;;;;;5022034;28;45418;-66
2021/12/14 06:46:33;;;;;;;;;25.67;22.67;;;;;;;;5023371;28;45584;-66
2021/12/14 06:49:13;;;;;;;;;25.67;21.33;;;;;;;;5021523;28;45457;-66
2021/12/14 06:51:40;;;;;;;;;21.33;20.00;;;;;;;;5021858;28;45331;-66
2021/12/14 06:54:08;;;;;;;;;31.33;26.67;;;;;;;;5020051;28;45578;-66
2021/12/14 06:56:34;;;;;;;;;23.67;19.33;;;;;;;;5016826;28;45351;-66
2021/12/14 06:59:10;;;;;;;;;28.25;24.00;;;;;;;;5002671;28;47203;-66
2021/12/14 07:01:37;;;;;;;;;29.00;26.00;;;;;;;;5022321;28;45306;-66
2021/12/14 07:04:25;;;;;;;;;24.00;21.67;;;;;;;;5020544;28;45376;-67
2021/12/14 07:06:57;;;;;;;;;40.00;29.75;;;;;;;;5015017;28;45392;-66
2021/12/14 07:09:22;;;;;;;;;33.67;21.33;;;;;;;;5021675;28;46478;-66
2021/12/14 07:11:58;;;;;;;;;36.20;34.40;;;;;;;;5022908;28;45413;-66
2021/12/14 07:14:27;;;;;;;;;31.00;29.67;;;;;;;;4996727;28;45246;-66
2021/12/14 07:16:54;;;;;;;;;34.00;29.25;;;;;;;;5022676;28;45260;-66
2021/12/14 07:19:37;;;;;;;;;31.50;26.25;;;;;;;;4997627;28;47212;-66
2021/12/14 07:22:02;;;;;;;;;34.00;26.50;;;;;;;;5002127;28;45340;-65
2021/12/14 07:24:30;;;;;;;;;37.25;28.75;;;;;;;;5020851;28;45375;-67
2021/12/14 07:27:16;;;;;;;;;22.00;14.33;;;;;;;;5022660;28;45367;-67
2021/12/14 07:29:42;;;;;;;;;29.67;22.33;;;;;;;;5020476;28;46310;-67
2021/12/14 07:32:07;;;;;;;;;28.33;23.67;;;;;;;;5003978;28;45783;-67
2021/12/14 07:34:32;;;;;;;;;27.00;23.67;;;;;;;;5021339;28;45268;-67
2021/12/14 07:36:58;;;;;;;;;33.67;25.67;;;;;;;;5022780;28;45409;-67
2021/12/14 07:39:23;;;;;;;;;38.00;36.50;;;;;;;;5017428;28;46615;-67
2021/12/14 07:41:50;;;;;;;;;30.67;26.33;;;;;;;;5022139;28;45376;-67
2021/12/14 07:44:15;;;;;;;;;22.67;22.00;;;;;;;;5019376;28;45456;-68
2021/12/14 07:46:42;;;;;;;;;27.33;24.00;;;;;;;;5020937;28;45237;-67
2021/12/14 07:49:07;;;;;;;;;36.25;29.25;;;;;;;;5002577;28;47312;-67
2021/12/14 07:51:35;;;;;;;;;35.33;28.67;;;;;;;;5021968;28;45236;-67
2021/12/14 07:54:12;;;;;;;;;42.00;34.75;;;;;;;;5020543;28;45462;-67
2021/12/14 07:56:40;;;;;;;;;35.50;28.50;;;;;;;;5016909;28;45491;-67
2021/12/14 07:59:29;;;;;;;;;30.67;28.67;;;;;;;;5002279;28;47223;-66
2021/12/14 08:02:13;;;;;;;;;32.00;27.00;;;;;;;;4999129;28;45489;-67
2021/12/14 08:04:39;;;;;;;;;26.00;23.50;;;;;;;;5021430;28;45387;-67
2021/12/14 08:07:05;;;;;;;;;38.00;28.25;;;;;;;;5022924;28;45582;-66
2021/12/14 08:09:52;;;;;;;;;32.25;25.75;;;;;;;;4995777;28;45421;-66
2021/12/14 08:12:47;;;;;;;;;38.75;31.75;;;;;;;;5004357;28;45409;-66
2021/12/14 08:15:18;;;;;;;;;34.50;26.00;;;;;;;;4990735;28;45410;-66
2021/12/14 08:17:44;;;;;;;;;39.00;28.25;;;;;;;;5021104;28;45358;-67
2021/12/14 08:20:12;;;;;;;;;33.67;23.67;;;;;;;;4997380;28;47832;-67
2021/12/14 08:22:39;;;;;;;;;44.33;28.33;;;;;;;;5019662;28;45268;-67
2021/12/14 08:25:06;;;;;;;;;26.00;22.50;;;;;;;;5020866;28;45241;-67
2021/12/14 08:27:32;;;;;;;;;30.33;25.00;;;;;;;;5022114;28;45543;-67
2021/12/14 08:29:59;;;;;;;;;36.33;27.00;;;;;;;;4997013;28;47356;-67
2021/12/14 08:32:28;;;;;;;;;32.00;24.67;;;;;;;;5003307;28;45706;-67
2021/12/14 08:34:55;;;;;;;;;26.33;24.33;;;;;;;;5020812;28;45304;-67
2021/12/14 08:37:42;;;;;;;;;30.33;26.67;;;;;;;;5020387;28;45498;-67
2021/12/14 08:40:18;;;;;;;;;30.00;22.33;;;;;;;;5019430;28;45593;-67
2021/12/14 08:43:07;;;;;;;;;32.67;24.67;;;;;;;;5020615;28;45373;-67
2021/12/14 08:45:35;;;;;;;;;43.00;34.50;;;;;;;;5010664;28;45553;-66
2021/12/14 08:48:10;;;;;;;;;40.50;32.00;;;;;;;;5021277;28;45296;-66
2021/12/14 08:50:41;;;;;;;;;38.00;32.00;;;;;;;;5018357;28;45292;-66
2021/12/14 08:53:08;;;;;;;;;38.25;33.25;;;;;;;;5020602;28;45322;-66
2021/12/14 08:55:36;;;;;;;;;45.50;35.25;;;;;;;;5012693;28;45391;-66
2021/12/14 08:58:02;;;;;;;;;38.50;31.50;;;;;;;;5003650;28;45363;-68
2021/12/14 09:00:33;;;;;;;;;42.50;34.50;;;;;;;;4999518;28;47430;-68
2021/12/14 09:03:00;;;;;;;;;36.50;27.50;;;;;;;;5013587;28;45268;-68
2021/12/14 09:05:38;;;;;;;;;42.50;32.25;;;;;;;;5021279;28;45487;-66
2021/12/14 09:08:03;;;;;;;;;34.25;30.25;;;;;;;;5021470;28;45404;-66
2021/12/14 09:10:30;;;;;;;;;32.00;27.33;;;;;;;;5021020;28;46361;-66
2021/12/14 09:12:59;;;;;;;;;40.75;30.50;;;;;;;;5020896;28;45292;-66
2021/12/14 09:15:44;;;;;;;;;40.00;32.25;;;;;;;;5018587;28;45280;-66
2021/12/14 09:18:10;;;;;;;;;28.00;24.33;;;;;;;;5020072;28;45510;-66
2021/12/14 09:20:43;;;;;;;;;36.67;29.33;;;;;;;;5020317;28;45264;-66
2021/12/14 09:23:12;;;;;;;;;35.50;33.00;;;;;;;;5018235;28;45313;-66
2021/12/14 09:25:38;;;;;;;;;41.25;36.25;;;;;;;;5020601;28;45444;-66
2021/12/14 09:28:04;;;;;;;;;44.00;32.50;;;;;;;;5020058;28;45564;-66
2021/12/14 09:30:33;;;;;;;;;33.50;31.50;;;;;;;;5018708;28;45764;-69
2021/12/14 09:32:58;;;;;;;;;37.00;31.50;;;;;;;;5019924;28;45335;-67
2021/12/14 09:35:26;;;;;;;;;35.25;26.00;;;;;;;;5022801;28;45396;-66
2021/12/14 09:37:53;;;;;;;;;39.50;32.50;;;;;;;;5023322;28;45547;-66
2021/12/14 09:40:27;;;;;;;;;36.75;29.00;;;;;;;;5005637;28;48270;-66
2021/12/14 09:42:53;;;;;;;;;36.75;27.25;;;;;;;;5022486;28;45399;-66
2021/12/14 09:45:21;;;;;;;;;40.00;32.25;;;;;;;;5006173;28;45298;-66
2021/12/14 09:47:46;;;;;;;;;36.75;31.75;;;;;;;;5012182;28;45359;-66
2021/12/14 09:50:14;;;;;;;;;62.00;47.00;;;;;;;;5023239;28;45362;-67
2021/12/14 09:52:40;;;;;;;;;30.50;25.25;;;;;;;;5024629;28;45678;-67
2021/12/14 09:55:09;;;;;;;;;39.25;26.00;;;;;;;;5014450;28;45509;-67
2021/12/14 09:57:36;;;;;;;;;39.00;32.75;;;;;;;;5025281;28;45332;-67
2021/12/14 10:00:05;;;;;;;;;36.00;33.00;;;;;;;;5019567;28;46632;-67
2021/12/14 10:02:34;;;;;;;;;40.00;31.00;;;;;;;;5024851;28;45636;-70
2021/12/14 10:05:09;;;;;;;;;38.25;29.25;;;;;;;;5002773;28;45415;-68
2021/12/14 10:07:34;;;;;;;;;35.25;27.50;;;;;;;;5024914;28;45463;-67
2021/12/14 10:10:01;;;;;;;;;31.67;28.00;;;;;;;;5000030;28;46762;-67
2021/12/14 10:15:01;;;;;;;;;41.25;36.25;;;;;;;;5023753;28;45332;-69
2021/12/14 10:17:27;;;;;;;;;38.75;33.75;;;;;;;;5022949;28;45523;-67
2021/12/14 10:19:54;;;;;;;;;30.00;26.00;;;;;;;;5023283;28;45364;-68
2021/12/14 10:22:23;;;;;;;;;38.00;29.33;;;;;;;;5024079;28;45254;-67
2021/12/14 10:24:51;;;;;;;;;33.33;25.67;;;;;;;;5022308;28;45424;-66
2021/12/14 10:27:18;;;;;;;;;29.33;26.67;;;;;;;;5005955;28;45278;-67
2021/12/14 10:29:44;;;;;;;;;41.33;35.00;;;;;;;;5022170;28;46137;-67
2021/12/14 10:32:12;;;;;;;;;37.00;27.67;;;;;;;;5022864;28;45420;-67
2021/12/14 10:34:41;;;;;;;;;29.67;27.00;;;;;;;;5004896;28;45501;-69
2021/12/14 10:37:14;;;;;;;;;35.00;26.67;;;;;;;;5024022;28;45558;-67
2021/12/14 10:42:39;;;;;;;;;32.67;30.00;;;;;;;;4998621;28;47698;-67
2021/12/14 10:45:10;;;;;;;;;54.75;44.00;;;;;;;;5022103;28;45591;-67
2021/12/14 10:47:35;;;;;;;;;56.75;43.00;;;;;;;;5024298;28;46235;-67
2021/12/14 10:50:04;;;;;;;;;40.25;34.50;;;;;;;;5002474;28;48209;-67
2021/12/14 10:52:30;;;;;;;;;45.25;35.25;;;;;;;;5023979;28;45301;-67
2021/12/14 10:55:01;;;;;;;;;34.25;33.00;;;;;;;;5012854;28;45249;-68
2021/12/14 10:57:28;;;;;;;;;53.25;41.50;;;;;;;;5006476;28;45378;-67
2021/12/14 10:59:56;;;;;;;;;35.50;32.75;;;;;;;;5022604;28;45431;-67
2021/12/14 11:02:24;;;;;;;;;43.00;35.75;;;;;;;;5023745;28;46228;-67
2021/12/14 11:04:55;;;;;;;;;40.00;33.75;;;;;;;;5022780;28;45491;-67
2021/12/14 11:07:24;;;;;;;;;44.75;35.25;;;;;;;;5006210;28;45927;-66
2021/12/14 11:09:55;;;;;;;;;31.00;28.00;;;;;;;;5022536;28;45653;-67
2021/12/14 11:12:33;;;;;;;;;32.33;28.00;;;;;;;;5023171;28;45529;-67
2021/12/14 11:15:18;;;;;;;;;36.75;33.75;;;;;;;;5022692;28;46340;-67
2021/12/14 11:20:32;;;;;;;;;36.00;33.50;;;;;;;;5021788;28;45791;-68
2021/12/14 11:23:00;;;;;;;;;34.75;31.75;;;;;;;;5004261;28;45374;-68
2021/12/14 11:25:27;;;;;;;;;41.00;31.67;;;;;;;;5021994;28;45279;-67
2021/12/14 11:28:00;;;;;;;;;44.00;34.25;;;;;;;;5022963;28;45602;-67
2021/12/14 11:30:28;;;;;;;;;41.75;35.75;;;;;;;;5022559;28;47019;-66
2021/12/14 11:33:12;;;;;;;;;31.67;29.33;;;;;;;;5021616;28;45489;-67
2021/12/14 11:35:41;;;;;;;;;36.00;29.67;;;;;;;;5021970;28;45373;-68
2021/12/14 11:38:21;;;;;;;;;37.00;33.00;;;;;;;;5022720;28;45887;-67
2021/12/14 11:40:47;;;;;;;;;34.25;25.25;;;;;;;;5022637;28;46423;-68
2021/12/14 11:43:18;;;;;;;;;34.00;31.67;;;;;;;;5022435;28;45442;-68
2021/12/14 11:45:47;;;;;;;;;44.33;31.00;;;;;;;;5022985;28;45287;-68
2021/12/14 11:48:12;;;;;;;;;38.00;29.00;;;;;;;;5022579;28;45331;-68
2021/12/14 11:50:40;;;;;;;;;52.75;35.50;;;;;;;;5022300;28;46427;-68
2021/12/14 11:53:05;;;;;;;;;35.33;32.00;;;;;;;;5022100;28;45474;-69
2021/12/14 11:55:30;;;;;;;;;43.00;32.67;;;;;;;;5017545;28;45323;-68
2021/12/14 11:58:08;;;;;;;;;30.33;25.33;;;;;;;;5003711;28;45527;-68
2021/12/14 12:00:34;;;;;;;;;40.67;31.67;;;;;;;;5022200;28;45400;-68
2021/12/14 12:03:17;;;;;;;;;42.25;34.25;;;;;;;;5020408;28;45385;-68
2021/12/14 12:05:58;;;;;;;;;41.00;30.25;;;;;;;;5022890;28;45421;-68
2021/12/14 12:11:08;;;;;;;;;39.25;33.50;;;;;;;;5020970;28;45451;-68
2021/12/14 12:13:38;;;;;;;;;50.75;37.50;;;;;;;;5021557;28;45253;-68
2021/12/14 12:16:17;;;;;;;;;44.50;36.75;;;;;;;;5022881;28;45375;-68
2021/12/14 12:19:01;;;;;;;;;55.00;42.00;;;;;;;;5021638;28;45490;-68
2021/12/14 12:21:28;;;;;;;;;43.00;37.50;;;;;;;;5019608;28;46275;-68
2021/12/14 12:23:53;;;;;;;;;37.50;34.75;;;;;;;;5020767;28;45456;-69
2021/12/14 12:26:20;;;;;;;;;45.25;36.00;;;;;;;;5021472;28;45328;-68
2021/12/14 12:28:47;;;;;;;;;47.25;36.25;;;;;;;;5019631;28;45459;-68
2021/12/14 12:31:15;;;;;;;;;50.25;36.75;;;;;;;;5021993;28;45984;-66
2021/12/14 12:33:45;;;;;;;;;45.67;37.00;;;;;;;;5022491;28;45297;-68
2021/12/14 12:36:15;;;;;;;;;40.67;35.00;;;;;;;;5021234;28;45489;-67
2021/12/14 12:38:47;;;;;;;;;38.67;33.33;;;;;;;;5021011;28;45606;-67
2021/12/14 12:41:25;;;;;;;;;37.50;34.00;;;;;;;;5003446;28;45651;-67
2021/12/14 12:44:02;;;;;;;;;43.75;33.75;;;;;;;;5020803;28;45960;-67
2021/12/14 12:46:30;;;;;;;;;53.00;37.00;;;;;;;;5022302;28;45401;-67
2021/12/14 12:48:56;;;;;;;;;47.25;37.25;;;;;;;;5021588;28;45521;-67
2021/12/14 12:51:37;;;;;;;;;43.50;35.25;;;;;;;;5021843;28;45478;-68
2021/12/14 12:54:10;;;;;;;;;49.50;35.75;;;;;;;;5015914;28;45520;-68
2021/12/14 12:56:37;;;;;;;;;44.75;37.00;;;;;;;;5022161;28;45364;-67
2021/12/14 12:59:03;;;;;;;;;52.50;40.00;;;;;;;;5021934;28;45483;-67
2021/12/14 13:01:28;;;;;;;;;47.25;35.75;;;;;;;;5022239;28;45688;-67
2021/12/14 13:03:55;;;;;;;;;54.25;39.00;;;;;;;;5021222;28;45361;-68
2021/12/14 13:06:22;;;;;;;;;50.75;40.50;;;;;;;;5021794;28;45382;-67
2021/12/14 13:08:49;;;;;;;;;52.25;40.00;;;;;;;;5022460;28;45502;-68
2021/12/14 13:11:14;;;;;;;;;48.75;38.00;;;;;;;;5025223;28;46519;-68
2021/12/14 13:13:40;;;;;;;;;44.00;37.00;;;;;;;;5024415;28;45165;-68
2021/12/14 13:16:07;;;;;;;;;54.00;41.25;;;;;;;;5025251;28;45156;-67
2021/12/14 13:18:35;;;;;;;;;50.25;37.50;;;;;;;;5024838;28;45331;-68
2021/12/14 13:21:03;;;;;;;;;39.00;34.00;;;;;;;;5025152;28;46266;-67
2021/12/14 13:23:42;;;;;;;;;38.00;31.50;;;;;;;;5024069;28;45386;-67
2021/12/14 13:26:37;;;;;;;;;50.50;40.00;;;;;;;;5024616;28;45312;-67
2021/12/14 13:29:02;;;;;;;;;37.25;31.00;;;;;;;;5011240;28;45465;-67
2021/12/14 13:31:33;;;;;;;;;48.25;38.50;;;;;;;;5007043;28;47534;-67
2021/12/14 13:34:01;;;;;;;;;33.00;30.25;;;;;;;;5003644;28;45921;-68
2021/12/14 13:36:26;;;;;;;;;47.25;35.75;;;;;;;;5023716;28;45376;-67
2021/12/14 13:38:52;;;;;;;;;46.75;37.25;;;;;;;;5024222;28;45308;-67
2021/12/14 13:41:40;;;;;;;;;48.00;37.00;;;;;;;;5024698;28;45390;-68
2021/12/14 13:44:05;;;;;;;;;41.50;34.50;;;;;;;;5003482;28;45342;-67
2021/12/14 13:46:31;;;;;;;;;38.50;33.50;;;;;;;;5025057;28;45249;-67
2021/12/14 13:48:56;;;;;;;;;54.25;40.00;;;;;;;;5024360;28;45490;-67
2021/12/14 13:51:23;;;;;;;;;50.25;38.50;;;;;;;;5022916;28;47199;-68
2021/12/14 13:53:48;;;;;;;;;34.00;30.50;;;;;;;;5020466;28;45258;-67
2021/12/14 13:56:26;;;;;;;;;54.00;37.50;;;;;;;;5022183;28;45501;-67
2021/12/14 13:58:53;;;;;;;;;55.00;39.75;;;;;;;;5024544;28;45476;-67
2021/12/14 14:01:23;;;;;;;;;48.25;37.50;;;;;;;;5023316;28;48062;-67
2021/12/14 14:03:54;;;;;;;;;41.00;34.67;;;;;;;;5022567;28;45655;-67
2021/12/14 14:06:20;;;;;;;;;43.00;34.33;;;;;;;;5024790;28;45442;-67
2021/12/14 14:08:47;;;;;;;;;40.33;34.00;;;;;;;;5022251;28;45609;-68
2021/12/14 14:11:21;;;;;;;;;39.25;34.25;;;;;;;;5024196;28;45475;-67
2021/12/14 14:13:47;;;;;;;;;59.25;42.00;;;;;;;;5022479;28;45505;-67
2021/12/14 14:16:13;;;;;;;;;42.00;36.50;;;;;;;;5003936;28;45661;-67
2021/12/14 14:18:40;;;;;;;;;54.75;38.00;;;;;;;;5004829;28;45439;-67
2021/12/14 14:21:07;;;;;;;;;47.00;38.00;;;;;;;;5023645;28;45746;-67
2021/12/14 14:23:38;;;;;;;;;50.50;40.25;;;;;;;;5023041;28;45421;-67
2021/12/14 14:26:07;;;;;;;;;51.50;40.75;;;;;;;;5024221;28;45307;-68
2021/12/14 14:28:37;;;;;;;;;49.25;37.75;;;;;;;;5024096;28;45458;-67
2021/12/14 14:31:05;;;;;;;;;55.00;38.00;;;;;;;;5024007;28;46015;-67
2021/12/14 14:33:43;;;;;;;;;47.50;37.25;;;;;;;;5022075;28;45573;-67
2021/12/14 14:36:27;;;;;;;;;60.25;45.00;;;;;;;;5024032;28;45334;-67
2021/12/14 14:39:01;;;;;;;;;52.75;40.25;;;;;;;;5001045;28;45737;-68
2021/12/14 14:41:28;;;;;;;;;57.00;43.00;;;;;;;;5016068;28;46874;-68
2021/12/14 14:44:06;;;;;;;;;54.25;40.75;;;;;;;;5002017;28;45348;-68
2021/12/14 14:46:40;;;;;;;;;54.25;42.25;;;;;;;;5024386;28;45462;-68
2021/12/14 14:49:06;;;;;;;;;54.50;40.75;;;;;;;;5023518;28;45377;-69
2021/12/14 14:51:47;;;;;;;;;56.50;41.50;;;;;;;;5024106;28;45434;-68
2021/12/14 14:54:30;;;;;;;;;53.25;40.00;;;;;;;;5018432;28;46008;-68
2021/12/14 14:56:56;;;;;;;;;45.75;36.00;;;;;;;;5024163;28;45164;-68
2021/12/14 14:59:21;;;;;;;;;43.50;37.00;;;;;;;;5004631;28;45615;-68
2021/12/14 15:01:47;;;;;;;;;50.00;38.25;;;;;;;;5023731;28;45880;-68
2021/12/14 15:04:12;;;;;;;;;50.50;37.50;;;;;;;;5022861;28;45390;-68
2021/12/14 15:06:39;;;;;;;;;48.00;36.75;;;;;;;;5005856;28;45360;-68